sensor_id;sensor_type;location;lat;lon;timestamp;P1;durP1;ratioP1;P2;durP2;ratioP2
25982;SDS011;13773;48.868;10.730;2023-04-06T00:01:35;11.83;;;6.67;;
25982;SDS011;13773;48.868;10.730;2023-04-06T00:04:00;8.50;;;6.63;;
25982;SDS011;13773;48.868;10.730;2023-04-06T00:06:26;8.00;;;6.47;;
25982;SDS011;13773;48.868;10.730;2023-04-06T00:08:52;9.00;;;6.43;;
25982;SDS011;13773;48.868;10.730;2023-04-06T00:11:18;9.87;;;6.40;;
25982;SDS011;13773;48.868;10.730;2023-04-06T00:13:44;9.17;;;7.00;;
25982;SDS011;13773;48.868;10.730;2023-04-06T00:16:10;9.47;;;6.57;;
25982;SDS011;13773;48.868;10.730;2023-04-06T00:18:35;10.90;;;7.10;;
25982;SDS011;13773;48.868;10.730;2023-04-06T00:21:01;9.67;;;6.97;;
25982;SDS011;13773;48.868;10.730;2023-04-06T00:23:28;8.27;;;6.57;;
25982;SDS011;13773;48.868;10.730;2023-04-06T00:25:53;7.83;;;6.50;;
25982;SDS011;13773;48.868;10.730;2023-04-06T00:28:20;7.87;;;6.23;;
25982;SDS011;13773;48.868;10.730;2023-04-06T00:30:50;8.07;;;6.77;;
25982;SDS011;13773;48.868;10.730;2023-04-06T00:33:17;8.07;;;6.27;;
25982;SDS011;13773;48.868;10.730;2023-04-06T00:35:43;7.07;;;6.37;;
25982;SDS011;13773;48.868;10.730;2023-04-06T00:38:09;9.03;;;6.90;;
25982;SDS011;13773;48.868;10.730;2023-04-06T00:40:35;7.83;;;6.37;;
25982;SDS011;13773;48.868;10.730;2023-04-06T00:43:01;6.87;;;6.10;;
25982;SDS011;13773;48.868;10.730;2023-04-06T00:45:27;9.57;;;6.27;;
25982;SDS011;13773;48.868;10.730;2023-04-06T00:47:53;6.67;;;5.77;;
25982;SDS011;13773;48.868;10.730;2023-04-06T00:50:19;7.53;;;5.93;;
25982;SDS011;13773;48.868;10.730;2023-04-06T00:52:44;8.17;;;6.03;;
25982;SDS011;13773;48.868;10.730;2023-04-06T00:55:10;8.43;;;6.50;;
25982;SDS011;13773;48.868;10.730;2023-04-06T00:57:36;9.00;;;6.33;;
25982;SDS011;13773;48.868;10.730;2023-04-06T01:00:02;7.10;;;6.33;;
25982;SDS011;13773;48.868;10.730;2023-04-06T01:02:28;9.93;;;6.43;;
25982;SDS011;13773;48.868;10.730;2023-04-06T01:04:54;8.63;;;6.50;;
25982;SDS011;13773;48.868;10.730;2023-04-06T01:07:20;6.90;;;5.97;;
25982;SDS011;13773;48.868;10.730;2023-04-06T01:09:46;8.97;;;6.80;;
25982;SDS011;13773;48.868;10.730;2023-04-06T01:12:11;7.80;;;6.17;;
25982;SDS011;13773;48.868;10.730;2023-04-06T01:14:37;9.77;;;6.37;;
25982;SDS011;13773;48.868;10.730;2023-04-06T01:17:03;7.33;;;6.37;;
25982;SDS011;13773;48.868;10.730;2023-04-06T01:19:29;9.20;;;6.67;;
25982;SDS011;13773;48.868;10.730;2023-04-06T01:21:54;8.10;;;6.40;;
25982;SDS011;13773;48.868;10.730;2023-04-06T01:24:20;7.83;;;6.40;;
25982;SDS011;13773;48.868;10.730;2023-04-06T01:26:47;10.90;;;6.53;;
25982;SDS011;13773;48.868;10.730;2023-04-06T01:29:13;9.83;;;6.77;;
25982;SDS011;13773;48.868;10.730;2023-04-06T01:31:39;9.20;;;6.90;;
25982;SDS011;13773;48.868;10.730;2023-04-06T01:34:05;9.83;;;6.87;;
25982;SDS011;13773;48.868;10.730;2023-04-06T01:36:31;11.37;;;7.20;;
25982;SDS011;13773;48.868;10.730;2023-04-06T01:38:57;7.47;;;6.47;;
25982;SDS011;13773;48.868;10.730;2023-04-06T01:41:22;9.60;;;7.00;;
25982;SDS011;13773;48.868;10.730;2023-04-06T01:43:48;9.40;;;6.80;;
25982;SDS011;13773;48.868;10.730;2023-04-06T01:46:14;10.33;;;7.17;;
25982;SDS011;13773;48.868;10.730;2023-04-06T01:48:40;12.53;;;7.13;;
25982;SDS011;13773;48.868;10.730;2023-04-06T01:51:06;8.80;;;6.97;;
25982;SDS011;13773;48.868;10.730;2023-04-06T01:53:32;10.77;;;6.93;;
25982;SDS011;13773;48.868;10.730;2023-04-06T01:55:58;6.77;;;6.07;;
25982;SDS011;13773;48.868;10.730;2023-04-06T01:58:24;11.77;;;6.87;;
25982;SDS011;13773;48.868;10.730;2023-04-06T02:00:51;8.03;;;7.00;;
25982;SDS011;13773;48.868;10.730;2023-04-06T02:03:16;9.37;;;6.67;;
25982;SDS011;13773;48.868;10.730;2023-04-06T02:05:42;11.17;;;6.80;;
25982;SDS011;13773;48.868;10.730;2023-04-06T02:08:08;9.20;;;7.40;;
25982;SDS011;13773;48.868;10.730;2023-04-06T02:10:34;9.13;;;7.83;;
25982;SDS011;13773;48.868;10.730;2023-04-06T02:13:00;8.80;;;6.93;;
25982;SDS011;13773;48.868;10.730;2023-04-06T02:15:26;11.67;;;8.20;;
25982;SDS011;13773;48.868;10.730;2023-04-06T02:17:52;9.13;;;7.10;;
25982;SDS011;13773;48.868;10.730;2023-04-06T02:20:17;9.57;;;6.70;;
25982;SDS011;13773;48.868;10.730;2023-04-06T02:22:43;9.73;;;6.67;;
25982;SDS011;13773;48.868;10.730;2023-04-06T02:25:09;11.27;;;7.10;;
25982;SDS011;13773;48.868;10.730;2023-04-06T02:27:35;9.90;;;7.07;;
25982;SDS011;13773;48.868;10.730;2023-04-06T02:30:02;9.03;;;7.73;;
25982;SDS011;13773;48.868;10.730;2023-04-06T02:32:28;9.10;;;7.13;;
25982;SDS011;13773;48.868;10.730;2023-04-06T02:34:54;8.63;;;6.87;;
25982;SDS011;13773;48.868;10.730;2023-04-06T02:37:20;7.67;;;6.40;;
25982;SDS011;13773;48.868;10.730;2023-04-06T02:39:46;8.43;;;6.50;;
25982;SDS011;13773;48.868;10.730;2023-04-06T02:42:12;9.43;;;6.40;;
25982;SDS011;13773;48.868;10.730;2023-04-06T02:44:40;7.87;;;7.00;;
25982;SDS011;13773;48.868;10.730;2023-04-06T02:47:06;9.20;;;7.27;;
25982;SDS011;13773;48.868;10.730;2023-04-06T02:49:32;9.27;;;6.67;;
25982;SDS011;13773;48.868;10.730;2023-04-06T02:51:58;9.23;;;6.30;;
25982;SDS011;13773;48.868;10.730;2023-04-06T02:54:23;8.00;;;6.70;;
25982;SDS011;13773;48.868;10.730;2023-04-06T02:56:49;8.43;;;6.37;;
25982;SDS011;13773;48.868;10.730;2023-04-06T02:59:15;8.50;;;7.07;;
25982;SDS011;13773;48.868;10.730;2023-04-06T03:01:41;8.97;;;6.97;;
25982;SDS011;13773;48.868;10.730;2023-04-06T03:04:06;9.67;;;7.30;;
25982;SDS011;13773;48.868;10.730;2023-04-06T03:06:32;9.93;;;7.70;;
25982;SDS011;13773;48.868;10.730;2023-04-06T03:08:58;10.87;;;7.23;;
25982;SDS011;13773;48.868;10.730;2023-04-06T03:11:23;11.03;;;7.80;;
25982;SDS011;13773;48.868;10.730;2023-04-06T03:13:50;9.63;;;6.87;;
25982;SDS011;13773;48.868;10.730;2023-04-06T03:16:16;10.00;;;7.40;;
25982;SDS011;13773;48.868;10.730;2023-04-06T03:18:41;9.57;;;7.17;;
25982;SDS011;13773;48.868;10.730;2023-04-06T03:21:09;11.53;;;8.23;;
25982;SDS011;13773;48.868;10.730;2023-04-06T03:23:35;10.00;;;7.03;;
25982;SDS011;13773;48.868;10.730;2023-04-06T03:26:01;10.80;;;7.47;;
25982;SDS011;13773;48.868;10.730;2023-04-06T03:28:27;9.73;;;7.63;;
25982;SDS011;13773;48.868;10.730;2023-04-06T03:30:53;13.10;;;7.73;;
25982;SDS011;13773;48.868;10.730;2023-04-06T03:33:19;8.77;;;7.20;;
25982;SDS011;13773;48.868;10.730;2023-04-06T03:35:45;8.03;;;7.20;;
25982;SDS011;13773;48.868;10.730;2023-04-06T03:38:11;9.37;;;7.43;;
25982;SDS011;13773;48.868;10.730;2023-04-06T03:40:36;10.93;;;7.70;;
25982;SDS011;13773;48.868;10.730;2023-04-06T03:43:02;9.93;;;7.23;;
25982;SDS011;13773;48.868;10.730;2023-04-06T03:45:29;8.07;;;6.80;;
25982;SDS011;13773;48.868;10.730;2023-04-06T03:47:54;8.43;;;7.20;;
25982;SDS011;13773;48.868;10.730;2023-04-06T03:50:20;10.30;;;7.80;;
25982;SDS011;13773;48.868;10.730;2023-04-06T03:52:46;8.80;;;6.77;;
25982;SDS011;13773;48.868;10.730;2023-04-06T03:55:12;10.67;;;7.07;;
25982;SDS011;13773;48.868;10.730;2023-04-06T03:57:37;9.30;;;7.23;;
25982;SDS011;13773;48.868;10.730;2023-04-06T04:00:03;11.63;;;7.17;;
25982;SDS011;13773;48.868;10.730;2023-04-06T04:02:29;8.83;;;6.67;;
25982;SDS011;13773;48.868;10.730;2023-04-06T04:04:55;14.87;;;8.83;;
25982;SDS011;13773;48.868;10.730;2023-04-06T04:07:20;11.47;;;8.27;;
25982;SDS011;13773;48.868;10.730;2023-04-06T04:09:46;8.30;;;6.30;;
25982;SDS011;13773;48.868;10.730;2023-04-06T04:12:12;10.07;;;7.23;;
25982;SDS011;13773;48.868;10.730;2023-04-06T04:14:39;7.57;;;6.23;;
25982;SDS011;13773;48.868;10.730;2023-04-06T04:17:05;9.70;;;7.50;;
25982;SDS011;13773;48.868;10.730;2023-04-06T04:19:31;10.73;;;7.90;;
25982;SDS011;13773;48.868;10.730;2023-04-06T04:21:56;9.87;;;7.60;;
25982;SDS011;13773;48.868;10.730;2023-04-06T04:24:22;9.20;;;6.97;;
25982;SDS011;13773;48.868;10.730;2023-04-06T04:26:47;9.33;;;7.03;;
25982;SDS011;13773;48.868;10.730;2023-04-06T04:29:13;10.07;;;8.13;;
25982;SDS011;13773;48.868;10.730;2023-04-06T04:31:40;9.97;;;8.27;;
25982;SDS011;13773;48.868;10.730;2023-04-06T04:34:05;9.70;;;7.57;;
25982;SDS011;13773;48.868;10.730;2023-04-06T04:36:32;10.53;;;7.63;;
25982;SDS011;13773;48.868;10.730;2023-04-06T04:38:57;10.20;;;8.47;;
25982;SDS011;13773;48.868;10.730;2023-04-06T04:41:26;10.27;;;7.77;;
25982;SDS011;13773;48.868;10.730;2023-04-06T04:43:51;8.27;;;7.27;;
25982;SDS011;13773;48.868;10.730;2023-04-06T04:46:17;9.93;;;8.00;;
25982;SDS011;13773;48.868;10.730;2023-04-06T04:48:43;11.63;;;7.80;;
25982;SDS011;13773;48.868;10.730;2023-04-06T04:51:08;12.03;;;7.23;;
25982;SDS011;13773;48.868;10.730;2023-04-06T04:53:34;12.23;;;8.00;;
25982;SDS011;13773;48.868;10.730;2023-04-06T04:56:00;9.63;;;7.50;;
25982;SDS011;13773;48.868;10.730;2023-04-06T04:58:26;8.70;;;7.03;;
25982;SDS011;13773;48.868;10.730;2023-04-06T05:00:52;11.13;;;7.00;;
25982;SDS011;13773;48.868;10.730;2023-04-06T05:03:21;11.03;;;7.90;;
25982;SDS011;13773;48.868;10.730;2023-04-06T05:05:48;12.13;;;8.10;;
25982;SDS011;13773;48.868;10.730;2023-04-06T05:08:14;9.97;;;8.03;;
25982;SDS011;13773;48.868;10.730;2023-04-06T05:10:41;11.30;;;8.20;;
25982;SDS011;13773;48.868;10.730;2023-04-06T05:13:15;11.67;;;7.93;;
25982;SDS011;13773;48.868;10.730;2023-04-06T05:15:40;9.90;;;7.57;;
25982;SDS011;13773;48.868;10.730;2023-04-06T05:18:07;9.73;;;7.80;;
25982;SDS011;13773;48.868;10.730;2023-04-06T05:20:33;12.67;;;8.00;;
25982;SDS011;13773;48.868;10.730;2023-04-06T05:22:59;10.40;;;7.03;;
25982;SDS011;13773;48.868;10.730;2023-04-06T05:25:25;9.90;;;7.23;;
25982;SDS011;13773;48.868;10.730;2023-04-06T05:27:51;10.90;;;7.60;;
25982;SDS011;13773;48.868;10.730;2023-04-06T05:30:17;10.93;;;7.90;;
25982;SDS011;13773;48.868;10.730;2023-04-06T05:32:43;12.07;;;8.20;;
25982;SDS011;13773;48.868;10.730;2023-04-06T05:35:09;11.07;;;7.17;;
25982;SDS011;13773;48.868;10.730;2023-04-06T05:37:35;13.17;;;8.40;;
25982;SDS011;13773;48.868;10.730;2023-04-06T05:40:01;9.40;;;7.27;;
25982;SDS011;13773;48.868;10.730;2023-04-06T05:42:27;10.23;;;7.80;;
25982;SDS011;13773;48.868;10.730;2023-04-06T05:45:01;11.40;;;7.33;;
25982;SDS011;13773;48.868;10.730;2023-04-06T05:47:27;12.00;;;8.27;;
25982;SDS011;13773;48.868;10.730;2023-04-06T05:49:53;9.27;;;7.57;;
25982;SDS011;13773;48.868;10.730;2023-04-06T05:52:18;12.13;;;8.10;;
25982;SDS011;13773;48.868;10.730;2023-04-06T05:54:44;9.57;;;7.33;;
25982;SDS011;13773;48.868;10.730;2023-04-06T05:57:10;9.70;;;7.57;;
25982;SDS011;13773;48.868;10.730;2023-04-06T05:59:35;9.53;;;7.27;;
25982;SDS011;13773;48.868;10.730;2023-04-06T06:02:01;8.03;;;7.13;;
25982;SDS011;13773;48.868;10.730;2023-04-06T06:04:27;9.67;;;7.10;;
25982;SDS011;13773;48.868;10.730;2023-04-06T06:06:52;12.60;;;7.57;;
25982;SDS011;13773;48.868;10.730;2023-04-06T06:09:18;10.73;;;7.90;;
25982;SDS011;13773;48.868;10.730;2023-04-06T06:11:45;13.47;;;8.03;;
25982;SDS011;13773;48.868;10.730;2023-04-06T06:14:11;8.67;;;7.23;;
25982;SDS011;13773;48.868;10.730;2023-04-06T06:16:36;8.40;;;7.13;;
25982;SDS011;13773;48.868;10.730;2023-04-06T06:19:02;9.60;;;7.63;;
25982;SDS011;13773;48.868;10.730;2023-04-06T06:21:28;10.60;;;7.67;;
25982;SDS011;13773;48.868;10.730;2023-04-06T06:23:55;9.43;;;7.60;;
25982;SDS011;13773;48.868;10.730;2023-04-06T06:26:21;10.73;;;7.90;;
25982;SDS011;13773;48.868;10.730;2023-04-06T06:28:47;10.67;;;7.97;;
25982;SDS011;13773;48.868;10.730;2023-04-06T06:31:12;9.47;;;8.10;;
25982;SDS011;13773;48.868;10.730;2023-04-06T06:33:38;9.37;;;7.87;;
25982;SDS011;13773;48.868;10.730;2023-04-06T06:36:04;9.20;;;7.50;;
25982;SDS011;13773;48.868;10.730;2023-04-06T06:38:30;11.70;;;8.43;;
25982;SDS011;13773;48.868;10.730;2023-04-06T06:40:55;10.87;;;8.20;;
25982;SDS011;13773;48.868;10.730;2023-04-06T06:43:21;9.87;;;7.73;;
25982;SDS011;13773;48.868;10.730;2023-04-06T06:45:47;9.53;;;8.53;;
25982;SDS011;13773;48.868;10.730;2023-04-06T06:48:12;10.07;;;7.80;;
25982;SDS011;13773;48.868;10.730;2023-04-06T06:50:38;9.87;;;8.37;;
25982;SDS011;13773;48.868;10.730;2023-04-06T06:53:04;8.47;;;7.53;;
25982;SDS011;13773;48.868;10.730;2023-04-06T06:55:29;11.63;;;8.10;;
25982;SDS011;13773;48.868;10.730;2023-04-06T06:57:55;9.50;;;8.30;;
25982;SDS011;13773;48.868;10.730;2023-04-06T07:00:21;11.20;;;8.37;;
25982;SDS011;13773;48.868;10.730;2023-04-06T07:02:47;8.60;;;7.43;;
25982;SDS011;13773;48.868;10.730;2023-04-06T07:05:13;11.07;;;8.23;;
25982;SDS011;13773;48.868;10.730;2023-04-06T07:07:40;8.70;;;7.47;;
25982;SDS011;13773;48.868;10.730;2023-04-06T07:10:06;10.40;;;8.10;;
25982;SDS011;13773;48.868;10.730;2023-04-06T07:12:32;9.10;;;7.80;;
25982;SDS011;13773;48.868;10.730;2023-04-06T07:14:58;9.40;;;7.37;;
25982;SDS011;13773;48.868;10.730;2023-04-06T07:17:24;9.77;;;7.73;;
25982;SDS011;13773;48.868;10.730;2023-04-06T07:19:50;10.10;;;7.80;;
25982;SDS011;13773;48.868;10.730;2023-04-06T07:22:16;9.00;;;7.30;;
25982;SDS011;13773;48.868;10.730;2023-04-06T07:24:41;10.73;;;7.93;;
25982;SDS011;13773;48.868;10.730;2023-04-06T07:27:07;10.40;;;7.83;;
25982;SDS011;13773;48.868;10.730;2023-04-06T07:29:33;11.90;;;7.97;;
25982;SDS011;13773;48.868;10.730;2023-04-06T07:31:58;8.97;;;7.80;;
25982;SDS011;13773;48.868;10.730;2023-04-06T07:34:24;9.60;;;8.07;;
25982;SDS011;13773;48.868;10.730;2023-04-06T07:36:50;9.50;;;7.90;;
25982;SDS011;13773;48.868;10.730;2023-04-06T07:39:17;10.03;;;7.90;;
25982;SDS011;13773;48.868;10.730;2023-04-06T07:41:43;10.60;;;7.80;;
25982;SDS011;13773;48.868;10.730;2023-04-06T07:44:09;9.50;;;8.53;;
25982;SDS011;13773;48.868;10.730;2023-04-06T07:46:34;10.53;;;8.30;;
25982;SDS011;13773;48.868;10.730;2023-04-06T07:49:01;12.30;;;8.20;;
25982;SDS011;13773;48.868;10.730;2023-04-06T07:51:27;11.47;;;8.00;;
25982;SDS011;13773;48.868;10.730;2023-04-06T07:53:53;10.87;;;8.13;;
25982;SDS011;13773;48.868;10.730;2023-04-06T07:56:18;15.50;;;8.57;;
25982;SDS011;13773;48.868;10.730;2023-04-06T07:58:45;10.43;;;7.97;;
25982;SDS011;13773;48.868;10.730;2023-04-06T08:01:11;14.87;;;9.23;;
25982;SDS011;13773;48.868;10.730;2023-04-06T08:03:37;10.27;;;7.97;;
25982;SDS011;13773;48.868;10.730;2023-04-06T08:06:03;18.13;;;8.20;;
25982;SDS011;13773;48.868;10.730;2023-04-06T08:08:29;13.97;;;8.87;;
25982;SDS011;13773;48.868;10.730;2023-04-06T08:10:55;10.87;;;8.40;;
25982;SDS011;13773;48.868;10.730;2023-04-06T08:13:21;12.30;;;8.60;;
25982;SDS011;13773;48.868;10.730;2023-04-06T08:15:47;19.37;;;9.37;;
25982;SDS011;13773;48.868;10.730;2023-04-06T08:18:13;22.43;;;9.63;;
25982;SDS011;13773;48.868;10.730;2023-04-06T08:20:39;18.50;;;10.33;;
25982;SDS011;13773;48.868;10.730;2023-04-06T08:23:05;16.97;;;10.00;;
25982;SDS011;13773;48.868;10.730;2023-04-06T08:25:31;13.83;;;10.20;;
25982;SDS011;13773;48.868;10.730;2023-04-06T08:27:59;18.33;;;10.07;;
25982;SDS011;13773;48.868;10.730;2023-04-06T08:30:25;23.40;;;10.47;;
25982;SDS011;13773;48.868;10.730;2023-04-06T08:32:51;14.83;;;9.33;;
25982;SDS011;13773;48.868;10.730;2023-04-06T08:35:16;14.53;;;9.30;;
25982;SDS011;13773;48.868;10.730;2023-04-06T08:37:42;22.03;;;9.63;;
25982;SDS011;13773;48.868;10.730;2023-04-06T08:40:08;15.93;;;9.10;;
25982;SDS011;13773;48.868;10.730;2023-04-06T08:42:36;14.97;;;9.33;;
25982;SDS011;13773;48.868;10.730;2023-04-06T08:45:10;15.77;;;10.00;;
25982;SDS011;13773;48.868;10.730;2023-04-06T08:47:36;13.67;;;8.93;;
25982;SDS011;13773;48.868;10.730;2023-04-06T08:50:03;12.37;;;8.97;;
25982;SDS011;13773;48.868;10.730;2023-04-06T08:52:31;11.10;;;8.67;;
25982;SDS011;13773;48.868;10.730;2023-04-06T08:54:58;11.17;;;8.37;;
25982;SDS011;13773;48.868;10.730;2023-04-06T08:57:24;15.60;;;8.97;;
25982;SDS011;13773;48.868;10.730;2023-04-06T08:59:51;13.47;;;8.60;;
25982;SDS011;13773;48.868;10.730;2023-04-06T09:02:18;10.33;;;7.77;;
25982;SDS011;13773;48.868;10.730;2023-04-06T09:04:47;13.27;;;9.33;;
25982;SDS011;13773;48.868;10.730;2023-04-06T09:07:15;15.13;;;9.37;;
25982;SDS011;13773;48.868;10.730;2023-04-06T09:09:41;14.33;;;8.60;;
25982;SDS011;13773;48.868;10.730;2023-04-06T09:12:21;15.33;;;9.37;;
25982;SDS011;13773;48.868;10.730;2023-04-06T09:14:48;15.40;;;9.43;;
25982;SDS011;13773;48.868;10.730;2023-04-06T09:17:21;13.57;;;9.40;;
25982;SDS011;13773;48.868;10.730;2023-04-06T09:19:50;13.57;;;9.30;;
25982;SDS011;13773;48.868;10.730;2023-04-06T09:22:17;18.13;;;12.70;;
25982;SDS011;13773;48.868;10.730;2023-04-06T09:27:10;16.30;;;10.27;;
25982;SDS011;13773;48.868;10.730;2023-04-06T09:29:36;20.07;;;10.17;;
25982;SDS011;13773;48.868;10.730;2023-04-06T09:32:05;12.93;;;9.70;;
25982;SDS011;13773;48.868;10.730;2023-04-06T09:34:33;13.53;;;9.77;;
25982;SDS011;13773;48.868;10.730;2023-04-06T09:36:59;16.10;;;11.23;;
25982;SDS011;13773;48.868;10.730;2023-04-06T09:39:25;14.23;;;11.00;;
25982;SDS011;13773;48.868;10.730;2023-04-06T09:41:51;15.70;;;10.23;;
25982;SDS011;13773;48.868;10.730;2023-04-06T09:44:19;13.23;;;10.20;;
25982;SDS011;13773;48.868;10.730;2023-04-06T09:46:46;13.43;;;9.40;;
25982;SDS011;13773;48.868;10.730;2023-04-06T09:49:12;12.30;;;9.87;;
25982;SDS011;13773;48.868;10.730;2023-04-06T09:54:06;12.10;;;9.00;;
25982;SDS011;13773;48.868;10.730;2023-04-06T10:00:06;10.37;;;8.53;;
25982;SDS011;13773;48.868;10.730;2023-04-06T10:05:30;11.20;;;8.80;;
25982;SDS011;13773;48.868;10.730;2023-04-06T10:08:05;11.20;;;8.70;;
25982;SDS011;13773;48.868;10.730;2023-04-06T10:10:33;10.43;;;7.60;;
25982;SDS011;13773;48.868;10.730;2023-04-06T10:12:59;10.67;;;8.77;;
25982;SDS011;13773;48.868;10.730;2023-04-06T10:15:27;10.37;;;8.03;;
25982;SDS011;13773;48.868;10.730;2023-04-06T10:17:55;11.33;;;8.97;;
25982;SDS011;13773;48.868;10.730;2023-04-06T10:20:29;10.63;;;8.80;;
25982;SDS011;13773;48.868;10.730;2023-04-06T10:23:34;11.40;;;8.77;;
25982;SDS011;13773;48.868;10.730;2023-04-06T10:26:02;11.53;;;8.77;;
25982;SDS011;13773;48.868;10.730;2023-04-06T10:28:33;10.50;;;8.60;;
25982;SDS011;13773;48.868;10.730;2023-04-06T10:31:02;12.77;;;8.00;;
25982;SDS011;13773;48.868;10.730;2023-04-06T10:33:30;9.30;;;8.30;;
25982;SDS011;13773;48.868;10.730;2023-04-06T10:35:56;8.13;;;6.80;;
25982;SDS011;13773;48.868;10.730;2023-04-06T10:38:43;7.57;;;6.03;;
25982;SDS011;13773;48.868;10.730;2023-04-06T10:41:09;10.57;;;6.80;;
25982;SDS011;13773;48.868;10.730;2023-04-06T10:43:37;7.03;;;6.23;;
25982;SDS011;13773;48.868;10.730;2023-04-06T10:46:05;9.27;;;6.80;;
25982;SDS011;13773;48.868;10.730;2023-04-06T10:48:38;7.63;;;6.80;;
25982;SDS011;13773;48.868;10.730;2023-04-06T10:51:17;10.57;;;7.30;;
25982;SDS011;13773;48.868;10.730;2023-04-06T10:53:47;11.33;;;6.53;;
25982;SDS011;13773;48.868;10.730;2023-04-06T10:56:14;7.17;;;6.40;;
25982;SDS011;13773;48.868;10.730;2023-04-06T10:58:48;5.97;;;5.37;;
25982;SDS011;13773;48.868;10.730;2023-04-06T11:01:18;6.90;;;6.20;;
25982;SDS011;13773;48.868;10.730;2023-04-06T11:03:49;7.77;;;6.60;;
25982;SDS011;13773;48.868;10.730;2023-04-06T11:06:19;9.37;;;7.77;;
25982;SDS011;13773;48.868;10.730;2023-04-06T11:08:46;9.20;;;8.17;;
25982;SDS011;13773;48.868;10.730;2023-04-06T11:11:13;10.07;;;7.37;;
25982;SDS011;13773;48.868;10.730;2023-04-06T11:13:48;8.23;;;7.33;;
25982;SDS011;13773;48.868;10.730;2023-04-06T11:16:23;10.27;;;7.47;;
25982;SDS011;13773;48.868;10.730;2023-04-06T11:18:50;10.30;;;7.93;;
25982;SDS011;13773;48.868;10.730;2023-04-06T11:21:31;9.90;;;8.27;;
25982;SDS011;13773;48.868;10.730;2023-04-06T11:24:11;9.80;;;7.43;;
25982;SDS011;13773;48.868;10.730;2023-04-06T11:26:50;9.53;;;7.43;;
25982;SDS011;13773;48.868;10.730;2023-04-06T11:29:21;11.73;;;8.50;;
25982;SDS011;13773;48.868;10.730;2023-04-06T11:31:50;10.93;;;8.10;;
25982;SDS011;13773;48.868;10.730;2023-04-06T11:36:47;9.97;;;7.80;;
25982;SDS011;13773;48.868;10.730;2023-04-06T11:39:18;10.47;;;8.27;;
25982;SDS011;13773;48.868;10.730;2023-04-06T11:41:57;10.97;;;8.67;;
25982;SDS011;13773;48.868;10.730;2023-04-06T11:44:32;11.57;;;8.03;;
25982;SDS011;13773;48.868;10.730;2023-04-06T11:47:04;9.53;;;7.97;;
25982;SDS011;13773;48.868;10.730;2023-04-06T11:49:31;9.50;;;8.30;;
25982;SDS011;13773;48.868;10.730;2023-04-06T11:51:59;10.23;;;9.00;;
25982;SDS011;13773;48.868;10.730;2023-04-06T11:54:35;12.17;;;9.67;;
25982;SDS011;13773;48.868;10.730;2023-04-06T11:57:03;13.10;;;9.67;;
25982;SDS011;13773;48.868;10.730;2023-04-06T11:59:29;10.70;;;9.60;;
25982;SDS011;13773;48.868;10.730;2023-04-06T12:01:56;10.73;;;9.63;;
25982;SDS011;13773;48.868;10.730;2023-04-06T12:04:22;11.27;;;9.53;;
25982;SDS011;13773;48.868;10.730;2023-04-06T12:06:49;12.03;;;9.80;;
25982;SDS011;13773;48.868;10.730;2023-04-06T12:09:15;11.07;;;9.70;;
25982;SDS011;13773;48.868;10.730;2023-04-06T12:11:44;10.70;;;9.60;;
25982;SDS011;13773;48.868;10.730;2023-04-06T12:14:10;11.13;;;9.93;;
25982;SDS011;13773;48.868;10.730;2023-04-06T12:16:36;13.27;;;9.90;;
25982;SDS011;13773;48.868;10.730;2023-04-06T12:19:02;11.50;;;9.97;;
25982;SDS011;13773;48.868;10.730;2023-04-06T12:21:28;12.07;;;10.83;;
25982;SDS011;13773;48.868;10.730;2023-04-06T12:23:55;11.20;;;10.10;;
25982;SDS011;13773;48.868;10.730;2023-04-06T12:26:22;11.17;;;9.77;;
25982;SDS011;13773;48.868;10.730;2023-04-06T12:28:47;10.97;;;9.57;;
25982;SDS011;13773;48.868;10.730;2023-04-06T12:31:16;10.77;;;9.67;;
25982;SDS011;13773;48.868;10.730;2023-04-06T12:33:44;11.53;;;9.73;;
25982;SDS011;13773;48.868;10.730;2023-04-06T12:36:13;12.43;;;10.00;;
25982;SDS011;13773;48.868;10.730;2023-04-06T12:38:40;12.90;;;11.00;;
25982;SDS011;13773;48.868;10.730;2023-04-06T12:41:06;12.13;;;10.53;;
25982;SDS011;13773;48.868;10.730;2023-04-06T12:43:32;12.60;;;10.60;;
25982;SDS011;13773;48.868;10.730;2023-04-06T12:45:58;11.43;;;10.00;;
25982;SDS011;13773;48.868;10.730;2023-04-06T12:48:25;11.53;;;10.17;;
25982;SDS011;13773;48.868;10.730;2023-04-06T12:50:58;11.23;;;10.13;;
25982;SDS011;13773;48.868;10.730;2023-04-06T12:53:26;11.93;;;9.43;;
25982;SDS011;13773;48.868;10.730;2023-04-06T12:55:53;12.07;;;10.73;;
25982;SDS011;13773;48.868;10.730;2023-04-06T12:58:19;11.53;;;10.20;;
25982;SDS011;13773;48.868;10.730;2023-04-06T13:00:46;12.00;;;9.90;;
25982;SDS011;13773;48.868;10.730;2023-04-06T13:03:12;11.13;;;9.47;;
25982;SDS011;13773;48.868;10.730;2023-04-06T13:05:47;12.50;;;10.57;;
25982;SDS011;13773;48.868;10.730;2023-04-06T13:08:14;10.87;;;9.47;;
25982;SDS011;13773;48.868;10.730;2023-04-06T13:10:44;11.37;;;10.27;;
25982;SDS011;13773;48.868;10.730;2023-04-06T13:13:12;11.77;;;10.23;;
25982;SDS011;13773;48.868;10.730;2023-04-06T13:15:37;11.20;;;9.70;;
25982;SDS011;13773;48.868;10.730;2023-04-06T13:18:03;10.83;;;9.63;;
25982;SDS011;13773;48.868;10.730;2023-04-06T13:20:29;10.27;;;9.27;;
25982;SDS011;13773;48.868;10.730;2023-04-06T13:22:55;10.57;;;9.43;;
25982;SDS011;13773;48.868;10.730;2023-04-06T13:25:21;11.30;;;10.10;;
25982;SDS011;13773;48.868;10.730;2023-04-06T13:27:46;11.77;;;9.90;;
25982;SDS011;13773;48.868;10.730;2023-04-06T13:30:13;11.20;;;10.10;;
25982;SDS011;13773;48.868;10.730;2023-04-06T13:32:39;10.23;;;9.23;;
25982;SDS011;13773;48.868;10.730;2023-04-06T13:35:05;11.37;;;10.17;;
25982;SDS011;13773;48.868;10.730;2023-04-06T13:37:32;12.77;;;9.67;;
25982;SDS011;13773;48.868;10.730;2023-04-06T13:39:58;10.90;;;8.87;;
25982;SDS011;13773;48.868;10.730;2023-04-06T13:42:24;10.27;;;9.23;;
25982;SDS011;13773;48.868;10.730;2023-04-06T13:44:50;11.77;;;9.30;;
25982;SDS011;13773;48.868;10.730;2023-04-06T13:47:16;9.97;;;8.97;;
25982;SDS011;13773;48.868;10.730;2023-04-06T13:49:42;10.57;;;9.40;;
25982;SDS011;13773;48.868;10.730;2023-04-06T13:52:08;10.87;;;9.70;;
25982;SDS011;13773;48.868;10.730;2023-04-06T13:54:35;11.23;;;9.83;;
25982;SDS011;13773;48.868;10.730;2023-04-06T13:57:01;11.47;;;9.47;;
25982;SDS011;13773;48.868;10.730;2023-04-06T13:59:34;11.60;;;8.97;;
25982;SDS011;13773;48.868;10.730;2023-04-06T14:02:00;10.70;;;9.60;;
25982;SDS011;13773;48.868;10.730;2023-04-06T14:04:30;10.07;;;8.90;;
25982;SDS011;13773;48.868;10.730;2023-04-06T14:06:57;9.97;;;8.97;;
25982;SDS011;13773;48.868;10.730;2023-04-06T14:09:23;10.70;;;9.60;;
25982;SDS011;13773;48.868;10.730;2023-04-06T14:11:49;10.30;;;9.13;;
25982;SDS011;13773;48.868;10.730;2023-04-06T14:14:16;10.80;;;9.67;;
25982;SDS011;13773;48.868;10.730;2023-04-06T14:16:43;9.67;;;8.67;;
25982;SDS011;13773;48.868;10.730;2023-04-06T14:19:10;10.47;;;9.10;;
25982;SDS011;13773;48.868;10.730;2023-04-06T14:21:39;9.87;;;8.90;;
25982;SDS011;13773;48.868;10.730;2023-04-06T14:24:06;9.97;;;8.40;;
25982;SDS011;13773;48.868;10.730;2023-04-06T14:26:33;10.23;;;9.13;;
25982;SDS011;13773;48.868;10.730;2023-04-06T14:29:00;10.27;;;8.97;;
25982;SDS011;13773;48.868;10.730;2023-04-06T14:31:26;11.53;;;9.30;;
25982;SDS011;13773;48.868;10.730;2023-04-06T14:33:52;11.00;;;8.50;;
25982;SDS011;13773;48.868;10.730;2023-04-06T14:36:18;9.70;;;8.70;;
25982;SDS011;13773;48.868;10.730;2023-04-06T14:38:44;9.03;;;7.97;;